Time;durP1;ratioP1;P1;durP2;ratioP2;P2;SDS_P1;SDS_P2;PMS_P1;PMS_P2;Temp;Humidity;BMP_temperature;BMP_pressure;BME280_temperature;BME280_humidity;BME280_pressure;Samples;Min_cycle;Max_cycle;Signal;HPM_P1;HPM_P2
2023/09/08 00:00:05;;;;;;;;;;;;;;;19.81;94.09;101687.34;5037698;28;19913;-74
2023/09/08 00:02:31;;;;;;;;;;;;;;;19.80;93.94;101688.31;5036760;28;19927;-74
2023/09/08 00:04:56;;;;;;;;;;;;;;;19.79;93.78;101678.63;5037422;28;20442;-74
2023/09/08 00:07:21;;;;;;;;;;;;;;;19.77;93.57;101683.22;5035595;28;20236;-74
2023/09/08 00:09:46;;;;;;;;;;;;;;;19.75;93.68;101689.50;5036858;28;20014;-74
2023/09/08 00:12:12;;;;;;;;;;;;;;;19.72;93.80;101683.50;5037053;28;20139;-74
2023/09/08 00:14:37;;;;;;;;;;;;;;;19.69;93.80;101692.50;5035565;28;19913;-74
2023/09/08 00:17:04;;;;;;;;;;;;;;;19.66;94.00;101686.53;5037452;28;20271;-74
2023/09/08 00:19:29;;;;;;;;;;;;;;;19.63;94.15;101687.59;5018990;28;19921;-74
2023/09/08 00:21:56;;;;;;;;;;;;;;;19.60;94.25;101689.59;5017075;28;19928;-74
2023/09/08 00:24:21;;;;;;;;;;;;;;;19.56;94.34;101691.63;5033634;28;20192;-73
2023/09/08 00:26:47;;;;;;;;;;;;;;;19.53;94.46;101695.31;5037044;28;20062;-74
2023/09/08 00:29:12;;;;;;;;;;;;;;;19.52;94.54;101695.44;5036994;28;19975;-74
2023/09/08 00:31:37;;;;;;;;;;;;;;;19.51;94.39;101693.72;5036482;28;20204;-74
2023/09/08 00:34:02;;;;;;;;;;;;;;;19.48;94.59;101700.09;5037060;28;20232;-74
2023/09/08 00:36:28;;;;;;;;;;;;;;;19.46;94.54;101699.31;5036086;28;19940;-74
2023/09/08 00:38:53;;;;;;;;;;;;;;;19.44;94.56;101701.22;5036899;28;19955;-74
2023/09/08 00:41:18;;;;;;;;;;;;;;;19.43;94.47;101690.69;5035835;28;19921;-74
2023/09/08 00:43:43;;;;;;;;;;;;;;;19.40;94.41;101689.09;5036749;28;19924;-74
2023/09/08 00:46:09;;;;;;;;;;;;;;;19.36;94.58;101690.25;5037037;28;20227;-74
2023/09/08 00:48:34;;;;;;;;;;;;;;;19.32;94.82;101697.56;5035853;28;19916;-74
2023/09/08 00:51:00;;;;;;;;;;;;;;;19.30;94.92;101691.50;5036294;28;19913;-74
2023/09/08 00:53:25;;;;;;;;;;;;;;;19.28;94.83;101692.53;5035875;28;19917;-74
2023/09/08 00:55:51;;;;;;;;;;;;;;;19.23;95.07;101698.16;5035501;28;19913;-74
2023/09/08 00:58:16;;;;;;;;;;;;;;;19.21;95.14;101697.41;5036067;28;20338;-74
2023/09/08 01:00:41;;;;;;;;;;;;;;;19.17;94.90;101694.09;5036247;28;19928;-74
2023/09/08 01:03:07;;;;;;;;;;;;;;;19.15;95.42;101693.28;5035696;28;19916;-74
2023/09/08 01:05:32;;;;;;;;;;;;;;;19.12;95.37;101692.66;5035776;28;19919;-74
2023/09/08 01:07:59;;;;;;;;;;;;;;;19.11;95.47;101688.28;5035816;28;19959;-74
2023/09/08 01:10:24;;;;;;;;;;;;;;;19.10;95.61;101686.56;5035686;28;19923;-74
2023/09/08 01:12:49;;;;;;;;;;;;;;;19.07;95.76;101689.44;5036322;28;19912;-74
2023/09/08 01:15:14;;;;;;;;;;;;;;;19.04;95.87;101689.63;5035888;28;20150;-74
2023/09/08 01:17:40;;;;;;;;;;;;;;;19.01;96.03;101682.72;5035670;28;19921;-74
2023/09/08 01:20:08;;;;;;;;;;;;;;;18.99;96.12;101689.91;5036194;28;19917;-74
2023/09/08 01:22:36;;;;;;;;;;;;;;;18.93;96.16;101688.50;5035296;28;20017;-74
2023/09/08 01:25:20;;;;;;;;;;;;;;;18.92;96.33;101700.06;5035955;28;19917;-74
2023/09/08 01:27:48;;;;;;;;;;;;;;;18.90;96.51;101691.34;5036028;28;19919;-74
2023/09/08 01:30:14;;;;;;;;;;;;;;;18.89;96.52;101686.13;5035806;28;20241;-74
2023/09/08 01:32:39;;;;;;;;;;;;;;;18.88;96.45;101695.03;5035434;28;19913;-74
2023/09/08 01:35:05;;;;;;;;;;;;;;;18.85;96.55;101690.78;5035729;28;20120;-74
2023/09/08 01:37:30;;;;;;;;;;;;;;;18.82;96.70;101692.78;5017228;28;19921;-74
2023/09/08 01:39:55;;;;;;;;;;;;;;;18.80;96.69;101688.38;5035881;28;19936;-74
2023/09/08 01:42:20;;;;;;;;;;;;;;;18.80;96.77;101685.72;5035232;28;19925;-74
2023/09/08 01:44:46;;;;;;;;;;;;;;;18.79;96.75;101686.69;5035503;28;19999;-74
2023/09/08 01:47:11;;;;;;;;;;;;;;;18.78;96.84;101681.47;5035800;28;20093;-74
2023/09/08 01:49:36;;;;;;;;;;;;;;;18.77;96.39;101685.06;5034747;28;20116;-74
2023/09/08 01:52:02;;;;;;;;;;;;;;;18.76;96.64;101680.72;5035365;28;20093;-74
2023/09/08 01:54:27;;;;;;;;;;;;;;;18.76;96.76;101678.91;5035032;28;19917;-74
2023/09/08 01:56:52;;;;;;;;;;;;;;;18.75;96.64;101673.69;5035256;28;20202;-74
2023/09/08 01:59:17;;;;;;;;;;;;;;;18.74;96.69;101674.66;5034609;28;19979;-74
2023/09/08 02:01:42;;;;;;;;;;;;;;;18.71;97.08;101674.84;5035232;28;19920;-74
2023/09/08 02:04:08;;;;;;;;;;;;;;;18.73;97.32;101681.75;5035371;28;19913;-74
2023/09/08 02:06:33;;;;;;;;;;;;;;;18.73;97.52;101673.78;5034292;28;19971;-73
2023/09/08 02:08:58;;;;;;;;;;;;;;;18.71;97.12;101672.19;5035239;28;19935;-73
2023/09/08 02:11:24;;;;;;;;;;;;;;;18.69;97.30;101672.28;5034493;28;19951;-73
2023/09/08 02:13:49;;;;;;;;;;;;;;;18.66;97.15;101671.59;5035103;28;19919;-73
2023/09/08 02:16:15;;;;;;;;;;;;;;;18.64;97.34;101678.81;5035147;28;20131;-73
2023/09/08 02:18:43;;;;;;;;;;;;;;;18.62;97.48;101676.25;5034226;28;20174;-73
2023/09/08 02:21:08;;;;;;;;;;;;;;;18.60;97.66;101671.03;5034972;28;20121;-73
2023/09/08 02:23:34;;;;;;;;;;;;;;;18.59;97.70;101679.94;5034247;28;19953;-73
2023/09/08 02:25:59;;;;;;;;;;;;;;;18.57;97.83;101673.91;5034998;28;19917;-73
2023/09/08 02:28:24;;;;;;;;;;;;;;;18.55;97.87;101672.25;5034483;28;19920;-73
2023/09/08 02:30:50;;;;;;;;;;;;;;;18.52;98.21;101668.00;5034883;28;19955;-73
2023/09/08 02:33:15;;;;;;;;;;;;;;;18.52;98.47;101672.44;5035182;28;20204;-73
2023/09/08 02:35:40;;;;;;;;;;;;;;;18.54;98.45;101673.22;5033896;28;19917;-73
2023/09/08 02:38:05;;;;;;;;;;;;;;;18.55;98.64;101669.59;5034757;28;19924;-73
2023/09/08 02:40:33;;;;;;;;;;;;;;;18.54;98.41;101674.06;5034155;28;19923;-73
2023/09/08 02:42:59;;;;;;;;;;;;;;;18.52;98.45;101675.97;5035304;28;19976;-73
2023/09/08 02:45:24;;;;;;;;;;;;;;;18.52;98.57;101661.84;5033895;28;19924;-73
2023/09/08 02:47:49;;;;;;;;;;;;;;;18.52;98.58;101662.72;5034935;28;19944;-73
2023/09/08 02:50:14;;;;;;;;;;;;;;;18.52;98.53;101660.06;5034455;28;20196;-73
2023/09/08 02:52:40;;;;;;;;;;;;;;;18.51;98.41;101660.13;5034225;28;19905;-73
2023/09/08 02:55:05;;;;;;;;;;;;;;;18.50;98.44;101654.00;5034557;28;19924;-73
2023/09/08 02:57:30;;;;;;;;;;;;;;;18.49;98.19;101654.09;5034374;28;19913;-73
2023/09/08 02:59:56;;;;;;;;;;;;;;;18.50;98.31;101655.78;5035207;28;20204;-73
2023/09/08 03:02:22;;;;;;;;;;;;;;;18.47;98.06;101654.16;5033269;28;19997;-73
2023/09/08 03:04:47;;;;;;;;;;;;;;;18.45;98.14;101661.38;5034213;28;19940;-73
2023/09/08 03:07:12;;;;;;;;;;;;;;;18.44;98.26;101654.34;5034527;28;19921;-73
2023/09/08 03:09:37;;;;;;;;;;;;;;;18.42;98.27;101654.44;5034111;28;19983;-73
2023/09/08 03:12:03;;;;;;;;;;;;;;;18.41;98.36;101657.22;5034289;28;19917;-73
2023/09/08 03:14:28;;;;;;;;;;;;;;;18.37;98.39;101651.25;5014256;28;19940;-73
2023/09/08 03:16:54;;;;;;;;;;;;;;;18.35;98.36;101650.44;5030051;28;19916;-73
2023/09/08 03:19:19;;;;;;;;;;;;;;;18.33;98.64;101660.31;5036531;28;19944;-73
2023/09/08 03:21:44;;;;;;;;;;;;;;;18.34;98.49;101658.53;5038247;28;19970;-73
2023/09/08 03:24:10;;;;;;;;;;;;;;;18.33;98.38;101659.47;5038070;28;20189;-73
2023/09/08 03:26:35;;;;;;;;;;;;;;;18.32;98.41;101661.25;5037071;28;19962;-73
2023/09/08 03:29:00;;;;;;;;;;;;;;;18.30;98.44;101649.91;5038017;28;19913;-73
2023/09/08 03:31:25;;;;;;;;;;;;;;;18.28;98.41;101648.28;5037628;28;19987;-73
2023/09/08 03:33:51;;;;;;;;;;;;;;;18.27;98.48;101649.22;5037842;28;20119;-73
2023/09/08 03:36:16;;;;;;;;;;;;;;;18.27;98.63;101651.88;5037309;28;20027;-73
2023/09/08 03:38:42;;;;;;;;;;;;;;;18.26;98.69;101647.50;5037764;28;20103;-73
2023/09/08 03:41:07;;;;;;;;;;;;;;;18.26;98.76;101644.88;5037685;28;19960;-73
2023/09/08 03:43:32;;;;;;;;;;;;;;;18.25;98.94;101645.81;5036859;28;19923;-73
2023/09/08 03:45:57;;;;;;;;;;;;;;;18.23;98.94;101646.75;5037594;28;19917;-73
2023/09/08 03:48:23;;;;;;;;;;;;;;;18.23;99.17;101635.31;5037016;28;20249;-73
2023/09/08 03:50:48;;;;;;;;;;;;;;;18.22;99.05;101639.72;5037598;28;19920;-73
2023/09/08 03:53:14;;;;;;;;;;;;;;;18.21;99.01;101631.91;5037751;28;20223;-73
2023/09/08 03:55:39;;;;;;;;;;;;;;;18.20;99.10;101633.69;5037420;28;19917;-73
2023/09/08 03:58:04;;;;;;;;;;;;;;;18.18;99.05;101632.91;5037206;28;19923;-73
2023/09/08 04:00:29;;;;;;;;;;;;;;;18.19;99.16;101636.41;5036652;28;20286;-73
2023/09/08 04:02:55;;;;;;;;;;;;;;;18.17;99.26;101639.19;5037068;28;20212;-73
2023/09/08 04:05:20;;;;;;;;;;;;;;;18.17;99.09;101644.50;5018723;28;20151;-73
2023/09/08 04:07:45;;;;;;;;;;;;;;;18.16;99.00;101640.13;5037261;28;19913;-73
2023/09/08 04:10:11;;;;;;;;;;;;;;;18.15;99.00;101646.34;5037108;28;19913;-73
2023/09/08 04:12:36;;;;;;;;;;;;;;;18.14;98.92;101638.50;5036761;28;19923;-73
2023/09/08 04:15:01;;;;;;;;;;;;;;;18.11;99.00;101641.34;5037147;28;19923;-73
2023/09/08 04:17:27;;;;;;;;;;;;;;;18.09;99.18;101644.06;5018369;28;19917;-73
2023/09/08 04:19:52;;;;;;;;;;;;;;;18.07;98.98;101642.47;5036999;28;19913;-73
2023/09/08 04:22:17;;;;;;;;;;;;;;;18.05;99.09;101645.22;5036131;28;19975;-73
2023/09/08 04:24:42;;;;;;;;;;;;;;;18.04;98.96;101643.50;5036759;28;19959;-73
2023/09/08 04:27:09;;;;;;;;;;;;;;;18.02;99.30;101637.44;5037028;28;19986;-73
2023/09/08 04:29:34;;;;;;;;;;;;;;;18.00;99.21;101640.16;5018575;28;20093;-73
2023/09/08 04:32:00;;;;;;;;;;;;;;;17.99;99.32;101641.13;5036824;28;19970;-73
2023/09/08 04:34:25;;;;;;;;;;;;;;;17.99;99.38;101633.19;5036494;28;19940;-73
2023/09/08 04:36:50;;;;;;;;;;;;;;;17.99;99.57;101634.97;5036536;28;20239;-73
2023/09/08 04:39:15;;;;;;;;;;;;;;;17.98;99.57;101643.88;5037146;28;19917;-73
2023/09/08 04:41:41;;;;;;;;;;;;;;;17.95;99.61;101642.22;5036433;28;19916;-73
2023/09/08 04:44:06;;;;;;;;;;;;;;;17.94;99.85;101642.34;5037043;28;20008;-73
2023/09/08 04:46:31;;;;;;;;;;;;;;;17.94;100.00;101639.69;5036024;28;19916;-73
2023/09/08 04:48:57;;;;;;;;;;;;;;;17.94;100.00;101651.16;5036593;28;19959;-73
2023/09/08 04:51:22;;;;;;;;;;;;;;;17.96;100.00;101638.66;5035743;28;19924;-73
2023/09/08 04:53:47;;;;;;;;;;;;;;;17.98;100.00;101643.88;5036394;28;19916;-73
2023/09/08 04:56:13;;;;;;;;;;;;;;;17.98;100.00;101646.53;5036531;28;19948;-73
2023/09/08 04:58:38;;;;;;;;;;;;;;;17.96;99.87;101645.75;5035009;28;19917;-73
2023/09/08 05:01:04;;;;;;;;;;;;;;;17.92;99.90;101647.75;5036011;28;20158;-73
2023/09/08 05:03:30;;;;;;;;;;;;;;;17.89;100.00;101642.59;5035688;28;20097;-73
2023/09/08 05:05:55;;;;;;;;;;;;;;;17.87;99.91;101647.16;5035708;28;20035;-73
2023/09/08 05:08:21;;;;;;;;;;;;;;;17.85;100.00;101654.34;5035018;28;19928;-73
2023/09/08 05:10:46;;;;;;;;;;;;;;;17.83;100.00;101653.53;5036238;28;20220;-73
2023/09/08 05:13:11;;;;;;;;;;;;;;;17.80;100.00;101657.22;5036282;28;20250;-73
2023/09/08 05:15:37;;;;;;;;;;;;;;;17.79;100.00;101655.53;5035768;28;19917;-73
2023/09/08 05:18:03;;;;;;;;;;;;;;;17.78;100.00;101655.59;5034310;28;19943;-73
2023/09/08 05:20:28;;;;;;;;;;;;;;;17.78;100.00;101663.56;5031842;28;19923;-73
2023/09/08 05:22:53;;;;;;;;;;;;;;;17.77;100.00;101656.53;5033549;28;19917;-73
2023/09/08 05:25:19;;;;;;;;;;;;;;;17.77;100.00;101657.41;5032233;28;20021;-73
2023/09/08 05:27:45;;;;;;;;;;;;;;;17.75;100.00;101661.91;5033012;28;19913;-73
2023/09/08 05:30:11;;;;;;;;;;;;;;;17.76;100.00;101660.13;5033395;28;19959;-73
2023/09/08 05:32:36;;;;;;;;;;;;;;;17.76;100.00;101666.28;5033067;28;19917;-73
2023/09/08 05:35:02;;;;;;;;;;;;;;;17.78;100.00;101666.19;5033635;28;19916;-73
2023/09/08 05:37:27;;;;;;;;;;;;;;;17.76;100.00;101671.59;5032985;28;19913;-73
2023/09/08 05:39:53;;;;;;;;;;;;;;;17.77;100.00;101664.47;5034665;28;19917;-73
2023/09/08 05:42:18;;;;;;;;;;;;;;;17.77;100.00;101667.13;5033490;28;19995;-73
2023/09/08 05:44:45;;;;;;;;;;;;;;;17.77;100.00;101668.00;5034405;28;19919;-73
2023/09/08 05:47:10;;;;;;;;;;;;;;;17.77;100.00;101673.31;5035379;28;20139;-73
2023/09/08 05:49:35;;;;;;;;;;;;;;;17.79;100.00;101676.72;5034334;28;19921;-73
2023/09/08 05:52:01;;;;;;;;;;;;;;;17.81;100.00;101676.63;5035550;28;20263;-73
2023/09/08 05:54:26;;;;;;;;;;;;;;;17.83;100.00;101674.75;5035116;28;19913;-73
2023/09/08 05:56:51;;;;;;;;;;;;;;;17.84;100.00;101677.31;5035603;28;19913;-73
2023/09/08 05:59:16;;;;;;;;;;;;;;;17.87;100.00;101671.00;5034994;28;20247;-73
2023/09/08 06:01:42;;;;;;;;;;;;;;;17.90;100.00;101672.59;5035375;28;20035;-73
2023/09/08 06:04:07;;;;;;;;;;;;;;;17.92;100.00;101676.88;5034595;28;20104;-73
2023/09/08 06:06:32;;;;;;;;;;;;;;;17.95;100.00;101675.84;5032955;28;19921;-73
2023/09/08 06:08:57;;;;;;;;;;;;;;;17.98;100.00;101687.13;5034139;28;19913;-73
2023/09/08 06:11:23;;;;;;;;;;;;;;;18.00;100.00;101684.38;5033592;28;19913;-73
2023/09/08 06:13:48;;;;;;;;;;;;;;;18.02;100.00;101685.13;5034278;28;19971;-73
2023/09/08 06:16:13;;;;;;;;;;;;;;;18.03;100.00;101689.50;5034244;28;19955;-73
2023/09/08 06:18:41;;;;;;;;;;;;;;;18.04;100.00;101688.53;5034162;28;19980;-73
2023/09/08 06:21:07;;;;;;;;;;;;;;;18.06;100.00;101686.66;5035267;28;19909;-73
2023/09/08 06:23:33;;;;;;;;;;;;;;;18.09;100.00;101683.84;5034259;28;20204;-73
2023/09/08 06:26:01;;;;;;;;;;;;;;;18.12;100.00;101685.44;5034087;28;20233;-73
2023/09/08 06:28:27;;;;;;;;;;;;;;;18.14;100.00;101684.41;5033480;28;19917;-73
2023/09/08 06:30:52;;;;;;;;;;;;;;;18.17;100.00;101693.97;5034158;28;20258;-73
2023/09/08 06:33:17;;;;;;;;;;;;;;;18.19;100.00;101679.72;5033086;28;19917;-73
2023/09/08 06:35:43;;;;;;;;;;;;;;;18.30;99.93;101681.72;5034048;28;19944;-73
2023/09/08 06:38:08;;;;;;;;;;;;;;;18.36;99.95;101688.44;5033805;28;19916;-73
2023/09/08 06:40:33;;;;;;;;;;;;;;;18.44;99.51;101691.47;5033668;28;19913;-73
2023/09/08 06:42:59;;;;;;;;;;;;;;;18.51;99.12;101687.50;5035354;28;19976;-73
2023/09/08 06:45:24;;;;;;;;;;;;;;;18.57;99.02;101687.16;5032624;28;19963;-73
2023/09/08 06:47:52;;;;;;;;;;;;;;;18.59;99.20;101692.34;5032638;28;20127;-73
2023/09/08 06:50:17;;;;;;;;;;;;;;;18.64;98.95;101689.41;5031940;28;19909;-73
2023/09/08 06:52:42;;;;;;;;;;;;;;;18.69;99.14;101692.66;5031018;28;19927;-73
2023/09/08 06:55:09;;;;;;;;;;;;;;;18.73;99.17;101689.69;5036425;28;19917;-73
2023/09/08 06:57:34;;;;;;;;;;;;;;;18.75;99.51;101697.56;5034556;28;19927;-73
2023/09/08 06:59:59;;;;;;;;;;;;;;;18.76;99.48;101693.97;5037599;28;20147;-73
2023/09/08 07:02:25;;;;;;;;;;;;;;;18.77;99.36;101691.25;5036088;28;19920;-73
2023/09/08 07:04:50;;;;;;;;;;;;;;;18.80;99.33;101698.16;5036936;28;19939;-73
2023/09/08 07:07:17;;;;;;;;;;;;;;;18.83;99.09;101691.81;5036517;28;19925;-73
2023/09/08 07:09:42;;;;;;;;;;;;;;;18.85;99.05;101693.44;5034516;28;19959;-73
2023/09/08 07:12:08;;;;;;;;;;;;;;;18.88;99.00;101693.25;5034006;28;20074;-73
2023/09/08 07:14:33;;;;;;;;;;;;;;;18.91;98.98;101692.19;5032342;28;19917;-73
2023/09/08 07:16:58;;;;;;;;;;;;;;;18.94;99.23;101692.88;5037806;28;19917;-73
2023/09/08 07:19:23;;;;;;;;;;;;;;;18.99;99.15;101690.78;5037742;28;19913;-73
2023/09/08 07:21:49;;;;;;;;;;;;;;;19.04;99.01;101694.94;5036899;28;20127;-73
2023/09/08 07:24:14;;;;;;;;;;;;;;;19.09;98.82;101692.84;5036808;28;19944;-73
2023/09/08 07:26:39;;;;;;;;;;;;;;;19.14;98.69;101696.91;5035919;28;20207;-73
2023/09/08 07:29:04;;;;;;;;;;;;;;;19.19;98.33;101701.91;5037029;28;19913;-73
2023/09/08 07:31:30;;;;;;;;;;;;;;;19.26;99.03;101708.56;5036799;28;19913;-73
2023/09/08 07:33:55;;;;;;;;;;;;;;;19.33;98.52;101706.38;5036836;28;20235;-73
2023/09/08 07:36:20;;;;;;;;;;;;;;;19.38;97.84;101699.81;5030467;28;19917;-73
2023/09/08 07:38:46;;;;;;;;;;;;;;;19.44;97.52;101706.53;5031114;28;19919;-73
2023/09/08 07:41:11;;;;;;;;;;;;;;;19.47;97.13;101701.03;5031960;28;19956;-73
2023/09/08 07:43:40;;;;;;;;;;;;;;;19.53;97.75;101697.13;5037013;28;19928;-73
2023/09/08 07:46:05;;;;;;;;;;;;;;;19.58;97.62;101696.81;5036918;28;19924;-73
2023/09/08 07:48:30;;;;;;;;;;;;;;;19.62;97.15;101699.16;5036648;28;19917;-73
2023/09/08 07:50:58;;;;;;;;;;;;;;;19.67;96.66;101696.22;5037596;28;19937;-73
2023/09/08 07:53:23;;;;;;;;;;;;;;;19.72;96.25;101692.31;5036895;28;20226;-73
2023/09/08 07:55:49;;;;;;;;;;;;;;;19.77;96.39;101692.03;5027523;28;19917;-73
2023/09/08 07:58:14;;;;;;;;;;;;;;;19.83;96.42;101696.94;5037495;28;20135;-73
2023/09/08 08:00:39;;;;;;;;;;;;;;;19.88;96.36;101688.66;5035505;28;19924;-73
2023/09/08 08:03:06;;;;;;;;;;;;;;;19.92;95.96;101695.50;5036988;28;19917;-73
2023/09/08 08:05:31;;;;;;;;;;;;;;;19.97;95.84;101689.84;5035602;28;19916;-73
2023/09/08 08:07:56;;;;;;;;;;;;;;;20.01;95.49;101692.22;5036373;28;19983;-73
2023/09/08 08:10:22;;;;;;;;;;;;;;;20.06;95.57;101698.06;5036617;28;19923;-73
2023/09/08 08:12:47;;;;;;;;;;;;;;;20.10;96.10;101688.06;5037327;28;19987;-73
2023/09/08 08:15:12;;;;;;;;;;;;;;;20.15;95.82;101696.59;5036633;28;19948;-73
2023/09/08 08:17:38;;;;;;;;;;;;;;;20.18;95.98;101698.19;5035873;28;19927;-73
2023/09/08 08:20:09;;;;;;;;;;;;;;;20.23;97.95;101702.25;5037236;28;20245;-73
2023/09/08 08:22:38;;;;;;;;;;;;;;;20.28;96.75;101701.91;5036006;28;20153;-73
2023/09/08 08:25:04;;;;;;;;;;;;;;;20.34;97.29;101701.53;5037150;28;20242;-73
2023/09/08 08:27:30;;;;;;;;;;;;;;;20.38;97.54;101699.50;5036184;28;19948;-73
2023/09/08 08:29:57;;;;;;;;;;;;;;;20.43;97.99;101700.00;5037177;28;19913;-73
2023/09/08 08:32:22;;;;;;;;;;;;;;;20.47;97.44;101699.72;5035907;28;19924;-73
2023/09/08 08:34:48;;;;;;;;;;;;;;;20.52;96.77;101707.38;5036646;28;19917;-73
2023/09/08 08:37:13;;;;;;;;;;;;;;;20.57;96.61;101702.56;5035761;28;19921;-73
2023/09/08 08:39:38;;;;;;;;;;;;;;;20.63;96.13;101704.00;5036053;28;20007;-73
2023/09/08 08:42:08;;;;;;;;;;;;;;;20.68;95.78;101697.41;5036652;28;19916;-73
2023/09/08 08:44:34;;;;;;;;;;;;;;;20.74;95.62;101701.47;5035632;28;19917;-73
2023/09/08 08:47:00;;;;;;;;;;;;;;;20.80;95.67;101703.69;5036210;28;19917;-73
2023/09/08 08:49:27;;;;;;;;;;;;;;;20.86;95.19;101707.72;5035608;28;20018;-73
2023/09/08 08:51:53;;;;;;;;;;;;;;;20.90;95.21;101712.72;5036031;28;19923;-73
2023/09/08 08:54:19;;;;;;;;;;;;;;;20.97;94.43;101713.13;5035531;28;19916;-73
2023/09/08 08:56:44;;;;;;;;;;;;;;;21.01;94.46;101716.41;5036298;28;19917;-73
2023/09/08 08:59:10;;;;;;;;;;;;;;;21.11;96.21;101711.31;5034769;28;19954;-73
2023/09/08 09:01:36;;;;;;;;;;;;;;;21.16;95.31;101709.16;5035146;28;20003;-73
2023/09/08 09:04:04;;;;;;;;;;;;;;;21.22;94.96;101706.06;5036005;28;20176;-73
2023/09/08 09:06:30;;;;;;;;;;;;;;;21.33;96.39;101715.94;5035091;28;19934;-73
2023/09/08 09:08:55;;;;;;;;;;;;;;;21.37;95.23;101715.59;5035703;28;20097;-73
2023/09/08 09:11:20;;;;;;;;;;;;;;;21.43;95.41;101711.66;5035554;28;19932;-73
2023/09/08 09:13:45;;;;;;;;;;;;;;;21.50;95.04;101712.06;5035839;28;20163;-73
2023/09/08 09:16:11;;;;;;;;;;;;;;;21.54;94.55;101714.41;5035037;28;20092;-73
2023/09/08 09:18:55;;;;;;;;;;;;;;;21.61;93.98;101718.31;5034683;28;20142;-73
2023/09/08 09:21:21;;;;;;;;;;;;;;;21.67;93.87;101717.03;5034714;28;19913;-73
2023/09/08 09:23:46;;;;;;;;;;;;;;;21.74;93.24;101720.06;5036132;28;20096;-73
2023/09/08 09:26:22;;;;;;;;;;;;;;;21.82;93.85;101715.88;5035667;28;19952;-73
2023/09/08 09:28:48;;;;;;;;;;;;;;;21.90;93.56;101715.28;5035006;28;19917;-73
2023/09/08 09:31:13;;;;;;;;;;;;;;;21.98;93.90;101710.25;5035867;28;19917;-73
2023/09/08 09:33:39;;;;;;;;;;;;;;;22.06;93.43;101712.31;5035006;28;19983;-73
2023/09/08 09:36:05;;;;;;;;;;;;;;;22.17;93.21;101709.69;5035427;28;19971;-73
2023/09/08 09:38:30;;;;;;;;;;;;;;;22.28;92.69;101711.56;5034598;28;19917;-73
2023/09/08 09:40:56;;;;;;;;;;;;;;;22.36;93.46;101706.50;5035283;28;19987;-73
2023/09/08 09:43:22;;;;;;;;;;;;;;;22.49;90.64;101705.56;5034940;28;19916;-73
2023/09/08 09:45:48;;;;;;;;;;;;;;;22.52;90.51;101706.19;5035426;28;19917;-73
2023/09/08 09:48:13;;;;;;;;;;;;;;;22.57;91.57;101712.00;5035494;28;19955;-73
2023/09/08 09:50:40;;;;;;;;;;;;;;;22.65;91.34;101707.88;5033899;28;19992;-73
2023/09/08 09:53:15;;;;;;;;;;;;;;;22.69;91.13;101696.84;5034658;28;19913;-73
2023/09/08 09:55:41;;;;;;;;;;;;;;;22.77;92.30;101698.91;5034466;28;19943;-73
2023/09/08 09:58:07;;;;;;;;;;;;;;;22.83;92.58;101702.91;5035029;28;19939;-73
2023/09/08 10:00:33;;;;;;;;;;;;;;;22.88;88.25;101698.91;5034143;28;19939;-73
2023/09/08 10:02:58;;;;;;;;;;;;;;;22.98;87.18;101705.22;5034797;28;20255;-73
2023/09/08 10:05:24;;;;;;;;;;;;;;;23.02;87.87;101707.66;5034494;28;20213;-73
2023/09/08 10:07:50;;;;;;;;;;;;;;;23.04;88.42;101701.22;5034834;28;19921;-73
2023/09/08 10:10:16;;;;;;;;;;;;;;;23.10;87.85;101703.44;5034205;28;19984;-73
2023/09/08 10:12:47;;;;;;;;;;;;;;;23.16;89.30;101707.44;5034769;28;19948;-73
2023/09/08 10:15:13;;;;;;;;;;;;;;;23.20;88.78;101703.53;5034173;28;19940;-73
2023/09/08 10:17:40;;;;;;;;;;;;;;;23.30;89.76;101709.84;5034101;28;19913;-73
2023/09/08 10:20:10;;;;;;;;;;;;;;;23.36;89.27;101711.16;5034500;28;19944;-73
2023/09/08 10:22:37;;;;;;;;;;;;;;;23.42;90.11;101716.00;5034269;28;19924;-73
2023/09/08 10:25:05;;;;;;;;;;;;;;;23.47;90.28;101708.47;5034245;28;19909;-73
2023/09/08 10:27:32;;;;;;;;;;;;;;;23.52;90.63;101708.94;5038338;28;19951;-73
2023/09/08 10:30:00;;;;;;;;;;;;;;;23.57;90.82;101706.72;5041864;28;20023;-73
2023/09/08 10:32:25;;;;;;;;;;;;;;;23.64;90.54;101712.41;5038881;28;20135;-73
2023/09/08 10:34:51;;;;;;;;;;;;;;;23.72;89.08;101712.63;5041149;28;19917;-73
2023/09/08 10:37:29;;;;;;;;;;;;;;;23.79;87.65;101707.59;5041146;28;19944;-73
2023/09/08 10:39:54;;;;;;;;;;;;;;;23.83;87.11;101711.78;5041518;28;19920;-73
2023/09/08 10:42:20;;;;;;;;;;;;;;;23.90;86.11;101704.06;5040615;28;20114;-73
2023/09/08 10:44:52;;;;;;;;;;;;;;;24.01;86.04;101700.50;5041114;28;20166;-73
2023/09/08 10:47:30;;;;;;;;;;;;;;;24.14;83.88;101702.03;5040778;28;20256;-72
2023/09/08 10:49:57;;;;;;;;;;;;;;;24.18;84.07;101702.59;5041213;28;19920;-73
2023/09/08 10:52:23;;;;;;;;;;;;;;;24.29;83.22;101699.84;5040448;28;19919;-73
2023/09/08 10:54:49;;;;;;;;;;;;;;;24.31;83.21;101697.91;5041791;28;20123;-73
2023/09/08 10:57:15;;;;;;;;;;;;;;;24.28;82.87;101700.81;5041586;28;19913;-73
2023/09/08 10:59:56;;;;;;;;;;;;;;;24.28;83.40;101703.50;5040637;28;19905;-73
2023/09/08 11:02:34;;;;;;;;;;;;;;;24.30;79.80;101706.06;5039635;28;20249;-73
2023/09/08 11:04:59;;;;;;;;;;;;;;;24.37;79.03;101707.22;5034088;28;20113;-73
2023/09/08 11:07:25;;;;;;;;;;;;;;;24.44;80.99;101707.56;5031705;28;19996;-73
2023/09/08 11:09:50;;;;;;;;;;;;;;;24.46;80.29;101701.06;5033477;28;19924;-73
2023/09/08 11:12:16;;;;;;;;;;;;;;;24.47;81.16;101712.66;5033032;28;20079;-73
2023/09/08 11:14:41;;;;;;;;;;;;;;;24.49;81.56;101708.00;5031698;28;19913;-73
2023/09/08 11:17:06;;;;;;;;;;;;;;;24.52;81.21;101715.75;5031630;28;19913;-73
2023/09/08 11:19:50;;;;;;;;;;;;;;;24.53;81.20;101706.78;5034994;28;19924;-73
2023/09/08 11:22:21;;;;;;;;;;;;;;;24.58;79.62;101712.59;5034270;28;19921;-73
2023/09/08 11:24:48;;;;;;;;;;;;;;;24.66;77.71;101715.44;5034117;28;20079;-73
2023/09/08 11:27:13;;;;;;;;;;;;;;;24.74;79.04;101716.59;5035940;28;19917;-73
2023/09/08 11:29:41;;;;;;;;;;;;;;;24.77;78.81;101716.34;5034843;28;20127;-73
2023/09/08 11:32:09;;;;;;;;;;;;;;;24.76;78.96;101709.28;5034739;28;19948;-73
2023/09/08 11:34:35;;;;;;;;;;;;;;;24.78;79.81;101702.84;5027441;28;19913;-73
2023/09/08 11:37:00;;;;;;;;;;;;;;;24.80;79.66;101706.22;5040441;28;19948;-73
2023/09/08 11:39:26;;;;;;;;;;;;;;;24.84;79.79;101707.63;5037366;28;20211;-73
2023/09/08 11:41:51;;;;;;;;;;;;;;;24.89;78.12;101707.25;5037853;28;19924;-73
2023/09/08 11:44:20;;;;;;;;;;;;;;;24.93;78.17;101707.81;5037255;28;19935;-73
2023/09/08 11:46:46;;;;;;;;;;;;;;;24.95;78.63;101706.69;5037494;28;20101;-73
2023/09/08 11:49:12;;;;;;;;;;;;;;;25.03;77.60;101704.19;5037657;28;20039;-73
2023/09/08 11:51:37;;;;;;;;;;;;;;;25.08;78.31;101704.63;5034288;28;19913;-73
2023/09/08 11:54:03;;;;;;;;;;;;;;;25.10;79.03;101702.69;5027724;28;19945;-73
2023/09/08 11:56:28;;;;;;;;;;;;;;;25.13;77.54;101706.91;5026628;28;19959;-73
2023/09/08 11:58:54;;;;;;;;;;;;;;;25.17;78.02;101700.28;5029948;28;19923;-73
2023/09/08 12:01:19;;;;;;;;;;;;;;;25.21;76.40;101703.53;5028619;28;20004;-73
2023/09/08 12:03:54;;;;;;;;;;;;;;;25.24;76.00;101698.78;5030655;28;20188;-73
2023/09/08 12:06:19;;;;;;;;;;;;;;;25.31;76.04;101701.75;5035654;28;20215;-73
2023/09/08 12:08:45;;;;;;;;;;;;;;;25.35;76.40;101699.66;5036535;28;20143;-73
2023/09/08 12:11:10;;;;;;;;;;;;;;;25.37;75.45;101690.47;5037343;28;19920;-73
2023/09/08 12:13:35;;;;;;;;;;;;;;;25.40;74.03;101700.09;5036740;28;19955;-73
2023/09/08 12:16:01;;;;;;;;;;;;;;;25.53;70.50;101694.47;5037243;28;19913;-73
2023/09/08 12:18:39;;;;;;;;;;;;;;;25.59;71.76;101699.25;5036623;28;19983;-73
2023/09/08 12:21:07;;;;;;;;;;;;;;;25.64;71.69;101697.00;5037128;28;19917;-73
2023/09/08 12:23:33;;;;;;;;;;;;;;;25.70;70.09;101695.59;5036674;28;19912;-73
2023/09/08 12:25:58;;;;;;;;;;;;;;;25.71;71.72;101700.81;5037278;28;19913;-73
2023/09/08 12:28:30;;;;;;;;;;;;;;;25.79;67.00;101692.06;5036384;28;19982;-73